createdAt,value
2018-07-26T00:02:24.260Z,23.90
2018-07-26T00:04:52.390Z,23.90
2018-07-26T00:07:20.511Z,23.90
2018-07-26T00:09:48.640Z,23.80
2018-07-26T00:12:16.818Z,23.80
2018-07-26T00:14:44.908Z,23.70
2018-07-26T00:17:13.020Z,23.80
2018-07-26T00:19:41.277Z,23.80
2018-07-26T00:22:09.543Z,23.70
2018-07-26T00:24:38.038Z,23.70
2018-07-26T00:27:06.299Z,23.70
2018-07-26T00:29:34.455Z,23.70
2018-07-26T00:32:02.568Z,23.70
2018-07-26T00:34:30.675Z,23.60
2018-07-26T00:36:58.790Z,23.50
2018-07-26T00:39:26.907Z,23.50
2018-07-26T00:41:55.025Z,23.50
2018-07-26T00:44:23.157Z,23.50
2018-07-26T00:46:51.266Z,23.50
2018-07-26T00:49:19.383Z,23.40
2018-07-26T00:51:47.495Z,23.40
2018-07-26T00:54:15.620Z,23.40
2018-07-26T00:56:43.728Z,23.50
2018-07-26T00:59:11.840Z,23.50
2018-07-26T01:01:39.974Z,23.50
2018-07-26T01:04:08.115Z,23.50
2018-07-26T01:06:36.231Z,23.40
2018-07-26T01:09:07.355Z,23.40
2018-07-26T01:11:35.475Z,23.40
2018-07-26T01:14:03.763Z,23.40
2018-07-26T01:16:31.970Z,23.40
2018-07-26T01:19:00.090Z,23.30
2018-07-26T01:21:28.191Z,23.30
2018-07-26T01:23:56.327Z,23.30
2018-07-26T01:26:24.438Z,23.20
2018-07-26T01:28:52.794Z,23.20
2018-07-26T01:31:20.899Z,23.20
2018-07-26T01:33:49.030Z,23.20
2018-07-26T01:36:17.143Z,23.10
2018-07-26T01:38:45.262Z,23.10
2018-07-26T01:41:13.371Z,23.20
2018-07-26T01:43:53.255Z,23.20
2018-07-26T01:46:22.583Z,23.10
2018-07-26T01:48:50.774Z,23.00
2018-07-26T01:51:18.883Z,23.00
2018-07-26T01:53:47.210Z,22.90
2018-07-26T01:56:15.339Z,22.90
2018-07-26T01:58:43.468Z,22.90
2018-07-26T02:01:12.390Z,22.90
2018-07-26T02:03:40.771Z,22.80
2018-07-26T02:06:09.115Z,22.80
2018-07-26T02:08:37.256Z,22.70
2018-07-26T02:11:05.366Z,22.60
2018-07-26T02:13:33.938Z,22.60
2018-07-26T02:16:02.063Z,22.60
2018-07-26T02:18:30.199Z,22.60
2018-07-26T02:20:58.303Z,22.60
2018-07-26T02:23:26.428Z,22.50
2018-07-26T02:25:54.898Z,22.50
2018-07-26T02:28:23.023Z,22.50
2018-07-26T02:30:51.174Z,22.50
2018-07-26T02:33:19.329Z,22.40
2018-07-26T02:35:47.411Z,22.40
2018-07-26T02:38:15.516Z,22.40
2018-07-26T02:40:43.659Z,22.40
2018-07-26T02:43:12.311Z,22.30
2018-07-26T02:45:40.458Z,22.30
2018-07-26T02:48:08.806Z,22.30
2018-07-26T02:50:36.942Z,22.30
2018-07-26T02:53:05.182Z,22.30
2018-07-26T02:55:33.294Z,22.20
2018-07-26T02:58:01.431Z,22.30
2018-07-26T03:00:29.600Z,22.20
2018-07-26T03:02:57.722Z,22.20
2018-07-26T03:05:25.868Z,22.10
2018-07-26T03:07:54.021Z,22.10
2018-07-26T03:10:22.133Z,22.10
2018-07-26T03:17:46.122Z,22.00
2018-07-26T03:20:14.247Z,22.00
2018-07-26T03:22:42.387Z,22.00
2018-07-26T03:25:10.506Z,22.00
2018-07-26T03:27:38.619Z,22.10
2018-07-26T03:30:07.571Z,22.10
2018-07-26T03:32:35.667Z,22.20
2018-07-26T03:35:03.864Z,22.20
2018-07-26T03:39:59.923Z,22.20
2018-07-26T03:42:28.064Z,22.20
2018-07-26T03:44:56.215Z,22.20
2018-07-26T03:47:24.326Z,22.20
2018-07-26T03:52:20.352Z,22.10
2018-07-26T03:54:48.464Z,22.10
2018-07-26T03:57:16.675Z,22.00
2018-07-26T03:59:44.790Z,22.00
2018-07-26T04:02:12.906Z,22.10
2018-07-26T04:04:41.030Z,22.10
2018-07-26T04:07:09.139Z,22.10
2018-07-26T04:09:37.259Z,22.10
2018-07-26T04:12:05.367Z,22.20
2018-07-26T04:14:33.503Z,22.20
2018-07-26T04:19:29.508Z,22.20
2018-07-26T04:21:57.622Z,22.30
2018-07-26T04:24:25.738Z,22.30
2018-07-26T04:26:53.847Z,22.40
2018-07-26T04:29:21.974Z,22.40
2018-07-26T04:31:50.154Z,22.50
2018-07-26T04:34:18.220Z,22.50
2018-07-26T04:36:46.334Z,22.50
2018-07-26T04:39:14.434Z,22.50
2018-07-26T04:41:42.551Z,22.60
2018-07-26T04:44:10.653Z,22.60
2018-07-26T04:46:38.945Z,22.70
2018-07-26T04:49:07.118Z,22.70
2018-07-26T04:51:35.270Z,22.70
2018-07-26T04:54:03.389Z,22.70
2018-07-26T04:56:31.507Z,22.70
2018-07-26T04:58:59.735Z,22.70
2018-07-26T05:01:27.879Z,22.70
2018-07-26T05:03:55.998Z,22.70
2018-07-26T05:06:24.126Z,22.70
2018-07-26T05:08:52.338Z,22.80
2018-07-26T05:11:20.482Z,22.80
2018-07-26T05:13:48.617Z,22.90
2018-07-26T05:16:16.758Z,22.90
2018-07-26T05:18:44.852Z,23.00
2018-07-26T05:21:13.030Z,23.00
2018-07-26T05:23:41.174Z,23.00
2018-07-26T05:26:09.274Z,23.00
2018-07-26T05:28:37.443Z,23.00
2018-07-26T05:31:05.562Z,23.00
2018-07-26T05:33:33.688Z,23.00
2018-07-26T05:36:01.919Z,23.10
2018-07-26T05:38:30.035Z,23.10
2018-07-26T05:40:58.166Z,23.10
2018-07-26T05:43:26.306Z,23.10
2018-07-26T05:45:54.466Z,23.10
2018-07-26T05:48:22.598Z,23.10
2018-07-26T05:50:50.766Z,23.10
2018-07-26T05:53:18.905Z,23.10
2018-07-26T05:55:47.018Z,23.20
2018-07-26T05:58:15.134Z,23.20
2018-07-26T06:00:43.251Z,23.30
2018-07-26T06:03:11.394Z,23.30
2018-07-26T06:08:07.521Z,23.50
2018-07-26T06:10:35.632Z,23.50
2018-07-26T06:13:03.818Z,23.60
2018-07-26T06:15:31.931Z,23.80
2018-07-26T06:18:00.047Z,23.90
2018-07-26T06:20:28.236Z,24.00
2018-07-26T06:22:56.365Z,24.10
2018-07-26T06:25:24.466Z,24.30
2018-07-26T06:27:52.656Z,24.40
2018-07-26T06:30:20.754Z,24.50
2018-07-26T06:32:48.881Z,24.50
2018-07-26T06:35:16.966Z,24.60
2018-07-26T06:37:45.128Z,24.80
2018-07-26T06:40:13.287Z,24.90
2018-07-26T06:42:41.406Z,24.90
2018-07-26T06:45:10.296Z,24.90
2018-07-26T06:47:38.446Z,24.90
2018-07-26T06:50:08.326Z,24.90
2018-07-26T06:52:36.499Z,24.90
2018-07-26T06:55:04.794Z,25.00
2018-07-26T06:57:32.909Z,25.20
2018-07-26T07:00:01.050Z,25.30
2018-07-26T07:02:29.187Z,25.50
2018-07-26T07:04:57.373Z,25.60
2018-07-26T07:07:25.497Z,25.80
2018-07-26T07:09:53.626Z,25.80
2018-07-26T07:12:21.751Z,26.00
2018-07-26T07:14:49.857Z,26.00
2018-07-26T07:17:17.979Z,26.10
2018-07-26T07:19:46.086Z,26.10
2018-07-26T07:22:14.231Z,26.10
2018-07-26T07:24:42.527Z,26.20
2018-07-26T07:27:10.711Z,26.30
2018-07-26T07:29:38.822Z,26.30
2018-07-26T07:32:06.938Z,26.40
2018-07-26T07:34:35.087Z,26.50
2018-07-26T07:37:03.239Z,26.60
2018-07-26T07:39:31.439Z,26.70
2018-07-26T07:41:59.566Z,26.80
2018-07-26T07:44:27.672Z,27.00
2018-07-26T07:46:55.786Z,27.10
2018-07-26T07:49:23.978Z,27.30
2018-07-26T07:51:52.111Z,27.50
2018-07-26T07:54:20.198Z,27.70
2018-07-26T07:56:48.332Z,27.80
2018-07-26T07:59:16.716Z,27.90
2018-07-26T08:01:44.829Z,28.10
2018-07-26T08:04:12.986Z,28.20
2018-07-26T08:06:41.147Z,28.40
2018-07-26T08:09:10.979Z,28.40
2018-07-26T08:11:39.210Z,28.60
2018-07-26T08:14:08.073Z,28.70
2018-07-26T08:16:36.238Z,28.80
2018-07-26T08:19:04.391Z,29.00
2018-07-26T08:21:32.506Z,29.20
2018-07-26T08:24:00.671Z,29.30
2018-07-26T08:26:28.799Z,29.30
2018-07-26T08:28:56.912Z,29.40
2018-07-26T08:31:25.038Z,29.50
2018-07-26T08:33:53.298Z,29.70
2018-07-26T08:36:21.408Z,29.80
2018-07-26T08:38:49.536Z,29.90
2018-07-26T08:41:17.734Z,30.00
2018-07-26T08:43:45.991Z,30.10
2018-07-26T08:46:14.126Z,30.30
2018-07-26T08:48:42.298Z,30.40
2018-07-26T08:51:10.404Z,30.50
2018-07-26T08:56:06.439Z,30.70
2018-07-26T08:58:34.554Z,30.80
2018-07-26T09:01:02.702Z,31.00
2018-07-26T09:03:31.062Z,31.20
2018-07-26T09:05:59.178Z,31.30
2018-07-26T09:08:27.399Z,31.40
2018-07-26T09:10:55.711Z,31.50
2018-07-26T09:13:24.024Z,31.60
2018-07-26T09:15:52.330Z,31.60
2018-07-26T09:18:20.478Z,31.80
2018-07-26T09:20:48.707Z,31.80
2018-07-26T09:23:16.834Z,31.90
2018-07-26T09:25:44.955Z,32.00
2018-07-26T09:28:13.094Z,32.20
2018-07-26T09:30:41.254Z,32.30
2018-07-26T09:33:09.392Z,32.40
2018-07-26T09:35:37.475Z,32.50
2018-07-26T09:38:05.591Z,32.60
2018-07-26T09:40:33.722Z,32.80
2018-07-26T09:43:01.866Z,32.90
2018-07-26T09:45:31.019Z,33.00
2018-07-26T09:47:59.141Z,33.10
2018-07-26T09:50:27.265Z,33.30
2018-07-26T09:52:55.442Z,33.40
2018-07-26T09:55:23.577Z,33.40
2018-07-26T09:57:51.710Z,33.50
2018-07-26T10:00:25.382Z,33.60
2018-07-26T10:02:53.426Z,33.70
2018-07-26T10:05:21.607Z,33.80
2018-07-26T10:07:49.741Z,34.00
2018-07-26T10:10:17.875Z,34.20
2018-07-26T10:12:45.987Z,34.30
2018-07-26T10:15:14.111Z,34.30
2018-07-26T10:17:42.249Z,34.40
2018-07-26T10:20:10.427Z,34.60
2018-07-26T10:22:38.499Z,34.60
2018-07-26T10:25:06.622Z,34.60
2018-07-26T10:27:34.727Z,34.60
2018-07-26T10:30:02.874Z,34.70
2018-07-26T10:32:30.994Z,34.80
2018-07-26T10:34:59.106Z,34.90
2018-07-26T10:37:27.225Z,35.00
2018-07-26T10:39:55.334Z,35.20
2018-07-26T10:42:23.431Z,35.20
2018-07-26T10:44:51.554Z,35.30
2018-07-26T10:47:19.674Z,35.50
2018-07-26T10:49:47.798Z,35.60
2018-07-26T10:52:15.897Z,35.70
2018-07-26T10:54:44.026Z,35.60
2018-07-26T10:57:12.138Z,35.70
2018-07-26T10:59:40.348Z,35.70
2018-07-26T11:02:08.455Z,35.80
2018-07-26T11:04:36.597Z,35.80
2018-07-26T11:07:04.847Z,35.90
2018-07-26T11:09:33.004Z,36.10
2018-07-26T11:12:01.083Z,36.30
2018-07-26T11:14:29.204Z,36.40
2018-07-26T11:16:57.298Z,36.60
2018-07-26T11:19:25.450Z,36.70
2018-07-26T11:21:53.561Z,36.80
2018-07-26T11:24:21.717Z,36.90
2018-07-26T11:26:49.803Z,36.80
2018-07-26T11:29:17.939Z,36.70
2018-07-26T11:31:46.050Z,36.90
2018-07-26T11:34:14.182Z,37.00
2018-07-26T11:36:42.306Z,37.10
2018-07-26T11:39:11.306Z,37.30
2018-07-26T11:41:39.427Z,37.40
2018-07-26T11:44:07.890Z,37.60
2018-07-26T11:46:36.174Z,37.80
2018-07-26T11:49:04.309Z,37.90
2018-07-26T11:51:32.425Z,38.00
2018-07-26T11:54:00.534Z,38.30
2018-07-26T11:56:28.655Z,38.30
2018-07-26T11:58:56.770Z,38.20
2018-07-26T12:01:24.920Z,38.30
2018-07-26T12:03:53.049Z,38.50
2018-07-26T12:06:21.146Z,38.60
2018-07-26T12:08:49.893Z,38.50
2018-07-26T12:11:18.051Z,38.50
2018-07-26T12:13:46.163Z,38.60
2018-07-26T12:16:14.287Z,38.70
2018-07-26T12:18:42.418Z,38.90
2018-07-26T12:21:10.555Z,39.00
2018-07-26T12:23:38.687Z,39.10
2018-07-26T12:26:06.824Z,39.20
2018-07-26T12:28:34.935Z,39.20
2018-07-26T12:31:03.268Z,39.30
2018-07-26T12:33:31.506Z,39.50
2018-07-26T12:35:59.643Z,39.60
2018-07-26T12:38:27.749Z,39.80
2018-07-26T12:40:56.006Z,39.80
2018-07-26T12:43:24.124Z,39.90
2018-07-26T12:45:52.262Z,40.10
2018-07-26T12:48:20.376Z,40.20
2018-07-26T12:50:49.061Z,40.30
2018-07-26T12:53:17.172Z,40.40
2018-07-26T12:55:45.287Z,40.50
2018-07-26T12:58:13.399Z,40.40
2018-07-26T13:00:41.515Z,40.60
2018-07-26T13:03:09.674Z,40.60
2018-07-26T13:05:37.793Z,40.30
2018-07-26T13:08:05.891Z,40.50
2018-07-26T13:10:34.016Z,41.10
2018-07-26T13:13:02.141Z,41.70
2018-07-26T13:15:30.250Z,42.00
2018-07-26T13:17:58.632Z,41.80
2018-07-26T13:20:26.745Z,41.50
2018-07-26T13:22:54.958Z,41.50
2018-07-26T13:25:23.098Z,41.40
2018-07-26T13:27:51.194Z,41.20
2018-07-26T13:30:19.301Z,40.90
2018-07-26T13:32:47.402Z,41.10
2018-07-26T13:35:15.527Z,40.80
2018-07-26T13:37:43.642Z,40.40
2018-07-26T13:40:11.949Z,40.00
2018-07-26T13:42:39.997Z,40.00
2018-07-26T13:45:08.811Z,41.00
2018-07-26T13:47:37.054Z,41.40
2018-07-26T13:50:05.286Z,41.20
2018-07-26T13:52:33.489Z,40.80
2018-07-26T13:55:01.534Z,40.30
2018-07-26T13:57:29.824Z,39.80
2018-07-26T13:59:58.191Z,39.30
2018-07-26T14:02:26.335Z,38.80
2018-07-26T14:04:54.430Z,38.50
2018-07-26T14:07:22.566Z,38.30
2018-07-26T14:09:50.741Z,38.00
2018-07-26T14:12:18.810Z,37.70
2018-07-26T14:14:46.938Z,37.50
2018-07-26T14:17:15.118Z,37.40
2018-07-26T14:19:43.229Z,37.40
2018-07-26T14:22:11.385Z,37.40
2018-07-26T14:24:39.495Z,37.30
2018-07-26T14:27:07.653Z,37.30
2018-07-26T14:29:35.771Z,37.20
2018-07-26T14:32:03.862Z,37.20
2018-07-26T14:34:31.974Z,37.20
2018-07-26T14:37:00.075Z,37.30
2018-07-26T14:39:28.163Z,37.30
2018-07-26T14:41:56.290Z,37.30
2018-07-26T14:44:24.402Z,37.40
2018-07-26T14:46:52.506Z,37.60
2018-07-26T14:49:20.639Z,38.00
2018-07-26T14:51:48.808Z,38.50
2018-07-26T14:54:16.850Z,39.00
2018-07-26T14:56:44.962Z,39.60
2018-07-26T14:59:13.373Z,40.20
2018-07-26T15:01:41.536Z,41.60
2018-07-26T15:04:09.664Z,43.30
2018-07-26T15:06:37.827Z,44.30
2018-07-26T15:09:08.150Z,44.80
2018-07-26T15:11:36.308Z,44.50
2018-07-26T15:14:04.431Z,44.00
2018-07-26T15:16:32.530Z,43.90
2018-07-26T15:19:00.743Z,44.30
2018-07-26T15:21:28.831Z,44.80
2018-07-26T15:23:56.936Z,44.80
2018-07-26T15:26:25.053Z,44.00
2018-07-26T15:28:53.182Z,43.10
2018-07-26T15:31:21.287Z,42.40
2018-07-26T15:33:49.407Z,41.70
2018-07-26T15:36:17.515Z,41.00
2018-07-26T15:38:45.618Z,40.40
2018-07-26T15:41:13.839Z,39.90
2018-07-26T15:43:41.946Z,39.50
2018-07-26T15:46:10.055Z,38.90
2018-07-26T15:48:38.214Z,38.50
2018-07-26T15:51:06.676Z,38.10
2018-07-26T15:53:34.765Z,37.90
2018-07-26T15:56:02.862Z,37.70
2018-07-26T15:58:31.010Z,37.50
2018-07-26T16:00:59.258Z,37.40
2018-07-26T16:03:27.484Z,37.40
2018-07-26T16:05:55.606Z,37.20
2018-07-26T16:08:23.750Z,37.10
2018-07-26T16:10:51.846Z,37.10
2018-07-26T16:13:19.951Z,37.10
2018-07-26T16:15:48.046Z,37.20
2018-07-26T16:18:16.180Z,37.30
2018-07-26T16:20:44.334Z,37.30
2018-07-26T16:25:40.445Z,37.50
2018-07-26T16:28:08.608Z,37.40
2018-07-26T16:30:36.749Z,37.20
2018-07-26T16:33:04.922Z,37.10
2018-07-26T16:35:33.970Z,36.90
2018-07-26T16:38:02.119Z,36.70
2018-07-26T16:40:30.401Z,36.60
2018-07-26T16:42:58.546Z,36.50
2018-07-26T16:45:26.711Z,36.40
2018-07-26T16:47:54.899Z,36.30
2018-07-26T16:50:23.102Z,36.30
2018-07-26T16:52:51.247Z,36.20
2018-07-26T16:55:19.364Z,36.10
2018-07-26T17:00:15.407Z,35.60
2018-07-26T17:05:11.523Z,34.80
2018-07-26T17:07:39.651Z,34.60
2018-07-26T17:10:08.570Z,34.40
2018-07-26T17:12:36.818Z,34.20
2018-07-26T17:15:06.311Z,34.00
2018-07-26T17:17:34.459Z,33.80
2018-07-26T17:20:02.595Z,33.70
2018-07-26T17:22:30.719Z,33.50
2018-07-26T17:24:58.840Z,33.30
2018-07-26T17:27:26.959Z,33.20
2018-07-26T17:32:22.980Z,33.20
2018-07-26T17:34:51.134Z,33.20
2018-07-26T17:37:19.450Z,33.20
2018-07-26T17:39:47.578Z,33.10
2018-07-26T17:42:15.868Z,33.10
2018-07-26T17:44:44.002Z,33.00
2018-07-26T17:47:12.314Z,33.00
2018-07-26T17:49:40.590Z,32.80
2018-07-26T17:52:08.747Z,32.80
2018-07-26T17:54:36.928Z,32.70
2018-07-26T17:57:05.172Z,32.60
2018-07-26T17:59:33.286Z,32.60
2018-07-26T18:02:01.423Z,32.50
2018-07-26T18:04:29.541Z,32.40
2018-07-26T18:06:57.653Z,32.40
2018-07-26T18:09:25.775Z,32.30
2018-07-26T18:11:53.899Z,32.20
2018-07-26T18:14:22.030Z,32.10
2018-07-26T18:16:50.141Z,32.00
2018-07-26T18:19:18.290Z,31.90
2018-07-26T18:21:46.443Z,31.80
2018-07-26T18:24:14.583Z,31.70
2018-07-26T18:26:42.742Z,31.70
2018-07-26T18:29:10.877Z,31.70
2018-07-26T18:31:39.131Z,31.60
2018-07-26T18:34:07.123Z,31.60
2018-07-26T18:36:35.270Z,31.50
2018-07-26T18:39:04.780Z,31.40
2018-07-26T18:41:32.907Z,31.40
2018-07-26T18:44:01.146Z,31.30
2018-07-26T18:46:29.179Z,31.30
2018-07-26T18:48:57.351Z,31.20
2018-07-26T18:51:25.502Z,31.10
2018-07-26T18:53:53.728Z,31.00
2018-07-26T18:56:21.859Z,30.90
2018-07-26T18:58:49.966Z,30.80
2018-07-26T19:01:18.623Z,30.80
2018-07-26T19:03:46.803Z,30.70
2018-07-26T19:06:14.908Z,30.50
2018-07-26T19:08:43.108Z,30.40
2018-07-26T19:11:11.179Z,30.30
2018-07-26T19:13:39.406Z,30.20
2018-07-26T19:16:08.196Z,30.10
2018-07-26T19:18:36.326Z,30.10
2018-07-26T19:21:04.523Z,30.00
2018-07-26T19:23:32.634Z,30.00
2018-07-26T19:28:28.683Z,29.90
2018-07-26T19:30:56.895Z,29.80
2018-07-26T19:33:25.017Z,29.70
2018-07-26T19:35:53.139Z,29.60
2018-07-26T19:38:21.255Z,29.50
2018-07-26T19:40:49.395Z,29.30
2018-07-26T19:43:17.522Z,29.30
2018-07-26T19:45:45.638Z,29.30
2018-07-26T19:48:13.788Z,29.20
2018-07-26T19:50:41.928Z,29.10
2018-07-26T19:53:10.061Z,29.10
2018-07-26T19:55:38.254Z,29.00
2018-07-26T19:58:06.350Z,28.90
2018-07-26T20:00:34.480Z,28.90
2018-07-26T20:03:02.620Z,28.80
2018-07-26T20:05:30.757Z,28.70
2018-07-26T20:07:58.890Z,28.60
2018-07-26T20:10:27.007Z,28.50
2018-07-26T20:12:55.127Z,28.40
2018-07-26T20:15:23.275Z,28.20
2018-07-26T20:17:51.445Z,28.20
2018-07-26T20:20:19.663Z,28.10
2018-07-26T20:22:47.778Z,27.90
2018-07-26T20:25:15.899Z,27.90
2018-07-26T20:27:44.035Z,27.80
2018-07-26T20:30:12.174Z,27.80
2018-07-26T20:32:40.665Z,27.70
2018-07-26T20:35:09.337Z,27.60
2018-07-26T20:37:37.602Z,27.50
2018-07-26T20:40:07.102Z,27.50
2018-07-26T20:42:35.270Z,27.40
2018-07-26T20:45:03.460Z,27.30
2018-07-26T20:47:31.624Z,27.20
2018-07-26T20:49:59.787Z,27.20
2018-07-26T20:52:27.927Z,27.20
2018-07-26T20:54:56.743Z,27.10
2018-07-26T20:57:24.900Z,27.00
2018-07-26T20:59:53.015Z,27.00
2018-07-26T21:02:21.593Z,26.90
2018-07-26T21:04:49.731Z,26.80
2018-07-26T21:07:17.841Z,26.80
2018-07-26T21:09:45.981Z,26.70
2018-07-26T21:12:14.135Z,26.70
2018-07-26T21:14:42.267Z,26.60
2018-07-26T21:17:10.394Z,26.40
2018-07-26T21:19:38.508Z,26.40
2018-07-26T21:22:06.683Z,26.40
2018-07-26T21:24:34.831Z,26.40
2018-07-26T21:27:02.979Z,26.30
2018-07-26T21:29:31.130Z,26.20
2018-07-26T21:31:59.282Z,26.10
2018-07-26T21:34:27.429Z,26.00
2018-07-26T21:36:55.594Z,26.00
2018-07-26T21:39:23.719Z,25.90
2018-07-26T21:41:51.862Z,25.90
2018-07-26T21:44:19.981Z,25.80
2018-07-26T21:46:48.147Z,25.90
2018-07-26T21:49:16.330Z,25.90
2018-07-26T21:51:44.464Z,25.80
2018-07-26T21:56:40.640Z,25.70
2018-07-26T21:59:08.755Z,25.50
2018-07-26T22:01:36.923Z,25.50
2018-07-26T22:04:05.116Z,25.50
2018-07-26T22:06:33.254Z,25.50
2018-07-26T22:09:01.451Z,25.50
2018-07-26T22:11:29.609Z,25.40
2018-07-26T22:13:57.732Z,25.30
2018-07-26T22:16:25.848Z,25.30
2018-07-26T22:18:54.247Z,25.20
2018-07-26T22:21:22.334Z,25.20
2018-07-26T22:23:50.547Z,25.10
2018-07-26T22:26:18.726Z,25.10
2018-07-26T22:28:47.030Z,25.10
2018-07-26T22:31:15.118Z,25.10
2018-07-26T22:33:43.230Z,25.10
2018-07-26T22:36:11.515Z,25.00
2018-07-26T22:38:39.727Z,25.00
2018-07-26T22:41:08.071Z,25.00
2018-07-26T22:43:36.327Z,24.90
2018-07-26T22:46:04.622Z,24.90
2018-07-26T22:48:33.259Z,24.80
2018-07-26T22:51:01.558Z,24.80
2018-07-26T22:53:30.093Z,24.80
2018-07-26T22:55:58.299Z,24.70
2018-07-26T22:58:26.441Z,24.60
2018-07-26T23:00:54.575Z,24.60
2018-07-26T23:03:22.730Z,24.50
2018-07-26T23:05:51.119Z,24.60
2018-07-26T23:08:19.417Z,24.50
2018-07-26T23:10:47.579Z,24.50
2018-07-26T23:13:15.682Z,24.40
2018-07-26T23:15:43.778Z,24.40
2018-07-26T23:18:11.954Z,24.40
2018-07-26T23:20:40.138Z,24.30
2018-07-26T23:23:08.270Z,24.30
2018-07-26T23:25:36.390Z,24.30
2018-07-26T23:28:04.566Z,24.20
2018-07-26T23:30:32.678Z,24.20
2018-07-26T23:33:00.942Z,24.20
2018-07-26T23:35:29.605Z,24.10
2018-07-26T23:37:57.819Z,24.00
2018-07-26T23:40:25.916Z,24.00
2018-07-26T23:42:54.029Z,24.00
2018-07-26T23:45:22.143Z,23.90
2018-07-26T23:47:50.254Z,23.90
2018-07-26T23:50:18.388Z,23.90
2018-07-26T23:52:46.507Z,23.80
